EZY81C LKPR-EHAM
Flight info
| Callsign | EZY81C |
|---|---|
| Flight time | 1h 14m |
| Altitude | 38000 |
| Route | BALTU DCT DONAD DCT VARIK L602 SODRO DCT KATCE DCT APEBE DCT NORKU |
| Aircraft | A20N/M-SDE2E3FGHIRWXY/LB1 |
Departure
| Time | 2026-05-06 19:39 |
|---|---|
| Airport | Václav Havel Airport Prague (LKPR) |
Arrival
| Time | 2026-05-06 20:54 |
|---|---|
| Airport | Amsterdam Airport Schiphol (EHAM) |
| Time | Latitude | Longitude | Altitude | Speed | Heading |
|---|---|---|---|---|---|
| 2026-05-06 19:04 | 50.10962 | 14.26837 | 1179 ft | 0 kts | 58° |
| 2026-05-06 19:21 | 50.10956 | 14.26820 | 1173 ft | 4 kts | 58° |
| 2026-05-06 19:21 | 50.10936 | 14.26771 | 1175 ft | 3 kts | 58° |
| 2026-05-06 19:21 | 50.10923 | 14.26743 | 1172 ft | 3 kts | 29° |
| 2026-05-06 19:21 | 50.10903 | 14.26737 | 1173 ft | 0 kts | 324° |
| 2026-05-06 19:30 | 50.10914 | 14.26725 | 1174 ft | 4 kts | 324° |
| 2026-05-06 19:30 | 50.10943 | 14.26691 | 1173 ft | 6 kts | 322° |
| 2026-05-06 19:30 | 50.10965 | 14.26650 | 1172 ft | 7 kts | 305° |
| 2026-05-06 19:30 | 50.11009 | 14.26570 | 1169 ft | 13 kts | 312° |
| 2026-05-06 19:31 | 50.11069 | 14.26455 | 1168 ft | 12 kts | 303° |
| 2026-05-06 19:31 | 50.11082 | 14.26397 | 1167 ft | 0 kts | 277° |
| 2026-05-06 19:31 | 50.11083 | 14.26386 | 1166 ft | 0 kts | 276° |
| 2026-05-06 19:32 | 50.11084 | 14.26361 | 1168 ft | 6 kts | 276° |
| 2026-05-06 19:32 | 50.11084 | 14.26270 | 1166 ft | 10 kts | 256° |
| 2026-05-06 19:32 | 50.11051 | 14.26162 | 1166 ft | 12 kts | 242° |
| 2026-05-06 19:32 | 50.11009 | 14.26025 | 1166 ft | 15 kts | 245° |
| 2026-05-06 19:33 | 50.10946 | 14.25894 | 1169 ft | 15 kts | 213° |
| 2026-05-06 19:33 | 50.10853 | 14.25798 | 1171 ft | 17 kts | 214° |
| 2026-05-06 19:33 | 50.10755 | 14.25692 | 1173 ft | 16 kts | 215° |
| 2026-05-06 19:33 | 50.10675 | 14.25605 | 1175 ft | 15 kts | 215° |
| 2026-05-06 19:34 | 50.10602 | 14.25477 | 1175 ft | 17 kts | 260° |
| 2026-05-06 19:34 | 50.10581 | 14.25329 | 1174 ft | 0 kts | 259° |
| 2026-05-06 19:34 | 50.10580 | 14.25319 | 1174 ft | 2 kts | 258° |
| 2026-05-06 19:34 | 50.10573 | 14.25265 | 1171 ft | 8 kts | 258° |
| 2026-05-06 19:35 | 50.10570 | 14.25239 | 1172 ft | 0 kts | 258° |
| 2026-05-06 19:37 | 50.10569 | 14.25234 | 1172 ft | 1 kts | 258° |
| 2026-05-06 19:38 | 50.10565 | 14.25209 | 1173 ft | 7 kts | 256° |
| 2026-05-06 19:38 | 50.10532 | 14.25131 | 1171 ft | 9 kts | 192° |
| 2026-05-06 19:38 | 50.10504 | 14.25151 | 1170 ft | 0 kts | 129° |
| 2026-05-06 19:38 | 50.10498 | 14.25166 | 1172 ft | 5 kts | 124° |
| 2026-05-06 19:39 | 50.10315 | 14.25554 | 1177 ft | 86 kts | 127° |
| 2026-05-06 19:39 | 50.09821 | 14.26606 | 1226 ft | 148 kts | 123° |
| 2026-05-06 19:39 | 50.09204 | 14.27988 | 1813 ft | 162 kts | 123° |
| 2026-05-06 19:39 | 50.08519 | 14.29527 | 2434 ft | 181 kts | 124° |
| 2026-05-06 19:40 | 50.07779 | 14.31026 | 2887 ft | 176 kts | 128° |
| 2026-05-06 19:40 | 50.06972 | 14.32594 | 3444 ft | 191 kts | 128° |
| 2026-05-06 19:40 | 50.06148 | 14.34226 | 4281 ft | 193 kts | 129° |
| 2026-05-06 19:40 | 50.05295 | 14.35947 | 4784 ft | 218 kts | 129° |
| 2026-05-06 19:41 | 50.04322 | 14.37932 | 5298 ft | 241 kts | 129° |
| 2026-05-06 19:41 | 50.03264 | 14.40110 | 5906 ft | 263 kts | 129° |
| 2026-05-06 19:41 | 50.02134 | 14.42441 | 6632 ft | 275 kts | 130° |
| 2026-05-06 19:41 | 50.00979 | 14.44848 | 7572 ft | 280 kts | 127° |
| 2026-05-06 19:42 | 50.00242 | 14.47698 | 8489 ft | 293 kts | 101° |
| 2026-05-06 19:42 | 50.00365 | 14.50899 | 9381 ft | 305 kts | 75° |
| 2026-05-06 19:42 | 50.01367 | 14.53840 | 10174 ft | 316 kts | 50° |
| 2026-05-06 19:42 | 50.03076 | 14.56139 | 10547 ft | 338 kts | 32° |
| 2026-05-06 19:43 | 50.05155 | 14.58095 | 10920 ft | 358 kts | 29° |
| 2026-05-06 19:43 | 50.07311 | 14.60118 | 11718 ft | 364 kts | 31° |
| 2026-05-06 19:43 | 50.09441 | 14.62287 | 12587 ft | 368 kts | 32° |
| 2026-05-06 19:43 | 50.11744 | 14.64001 | 13433 ft | 370 kts | 13° |
| 2026-05-06 19:44 | 50.14296 | 14.64385 | 14145 ft | 371 kts | 352° |
| 2026-05-06 19:44 | 50.16789 | 14.63403 | 14854 ft | 370 kts | 334° |
| 2026-05-06 19:44 | 50.19139 | 14.61709 | 15461 ft | 374 kts | 329° |
| 2026-05-06 19:44 | 50.21422 | 14.59765 | 15694 ft | 372 kts | 321° |
| 2026-05-06 19:45 | 50.23253 | 14.56997 | 15767 ft | 365 kts | 301° |
| 2026-05-06 19:45 | 50.24342 | 14.53541 | 15751 ft | 357 kts | 282° |
| 2026-05-06 19:45 | 50.24628 | 14.49745 | 15751 ft | 351 kts | 267° |
| 2026-05-06 19:45 | 50.24580 | 14.45921 | 15755 ft | 350 kts | 265° |
| 2026-05-06 19:46 | 50.24534 | 14.42113 | 15758 ft | 350 kts | 266° |
| 2026-05-06 19:46 | 50.24553 | 14.38299 | 15775 ft | 351 kts | 268° |
| 2026-05-06 19:46 | 50.24626 | 14.34498 | 15758 ft | 350 kts | 269° |
| 2026-05-06 19:46 | 50.24730 | 14.30695 | 15760 ft | 351 kts | 270° |
| 2026-05-06 19:47 | 50.24848 | 14.26868 | 16039 ft | 355 kts | 270° |
| 2026-05-06 19:47 | 50.24969 | 14.23011 | 16867 ft | 355 kts | 270° |
| 2026-05-06 19:47 | 50.25093 | 14.19129 | 17619 ft | 360 kts | 271° |
| 2026-05-06 19:47 | 50.25580 | 14.15309 | 18274 ft | 369 kts | 287° |
| 2026-05-06 19:48 | 50.26567 | 14.11516 | 18923 ft | 374 kts | 289° |
| 2026-05-06 19:48 | 50.27576 | 14.07810 | 19539 ft | 378 kts | 289° |
| 2026-05-06 19:48 | 50.28628 | 14.04034 | 20161 ft | 381 kts | 290° |
| 2026-05-06 19:48 | 50.29705 | 14.00219 | 20779 ft | 385 kts | 290° |
| 2026-05-06 19:49 | 50.30794 | 13.96376 | 21403 ft | 388 kts | 290° |
| 2026-05-06 19:49 | 50.31891 | 13.92498 | 22025 ft | 392 kts | 290° |
| 2026-05-06 19:49 | 50.32996 | 13.88582 | 22627 ft | 395 kts | 290° |
| 2026-05-06 19:49 | 50.34109 | 13.84630 | 23228 ft | 398 kts | 290° |
| 2026-05-06 19:50 | 50.35229 | 13.80642 | 23746 ft | 401 kts | 289° |
| 2026-05-06 19:50 | 50.36353 | 13.76632 | 24288 ft | 403 kts | 289° |
| 2026-05-06 19:50 | 50.37483 | 13.72595 | 24798 ft | 406 kts | 289° |
| 2026-05-06 19:50 | 50.38619 | 13.68527 | 25300 ft | 408 kts | 289° |
| 2026-05-06 19:51 | 50.39759 | 13.64439 | 25784 ft | 410 kts | 289° |
| 2026-05-06 19:51 | 50.40888 | 13.60380 | 26264 ft | 412 kts | 289° |
| 2026-05-06 19:51 | 50.42052 | 13.56190 | 26738 ft | 415 kts | 288° |
| 2026-05-06 19:51 | 50.43189 | 13.52086 | 27188 ft | 417 kts | 288° |
| 2026-05-06 19:52 | 50.44348 | 13.47896 | 27639 ft | 419 kts | 288° |
| 2026-05-06 19:52 | 50.45511 | 13.43687 | 28077 ft | 422 kts | 288° |
| 2026-05-06 19:52 | 50.46678 | 13.39452 | 28493 ft | 424 kts | 288° |
| 2026-05-06 19:52 | 50.47852 | 13.35187 | 28900 ft | 426 kts | 288° |
| 2026-05-06 19:53 | 50.49029 | 13.30900 | 29293 ft | 428 kts | 288° |
| 2026-05-06 19:53 | 50.50210 | 13.26592 | 29679 ft | 430 kts | 287° |
| 2026-05-06 19:53 | 50.51395 | 13.22258 | 30027 ft | 433 kts | 287° |
| 2026-05-06 19:53 | 50.52584 | 13.17904 | 30371 ft | 434 kts | 287° |
| 2026-05-06 19:54 | 50.53776 | 13.13533 | 30718 ft | 436 kts | 287° |
| 2026-05-06 19:54 | 50.54972 | 13.09140 | 31080 ft | 438 kts | 287° |
| 2026-05-06 19:54 | 50.56168 | 13.04736 | 31468 ft | 438 kts | 287° |
| 2026-05-06 19:54 | 50.57363 | 13.00329 | 31944 ft | 436 kts | 287° |
| 2026-05-06 19:55 | 50.58533 | 12.96008 | 32399 ft | 434 kts | 287° |
| 2026-05-06 19:55 | 50.59712 | 12.91639 | 32853 ft | 433 kts | 287° |
| 2026-05-06 19:55 | 50.60884 | 12.87290 | 33277 ft | 431 kts | 287° |
| 2026-05-06 19:55 | 50.62053 | 12.82944 | 33707 ft | 430 kts | 287° |
| 2026-05-06 19:56 | 50.63217 | 12.78605 | 34032 ft | 429 kts | 287° |
| 2026-05-06 19:56 | 50.64382 | 12.74251 | 34284 ft | 431 kts | 287° |
| 2026-05-06 19:56 | 50.65547 | 12.69891 | 34551 ft | 431 kts | 287° |
| 2026-05-06 19:56 | 50.66710 | 12.65530 | 34822 ft | 432 kts | 287° |
| 2026-05-06 19:57 | 50.67874 | 12.61158 | 35073 ft | 433 kts | 287° |
| 2026-05-06 19:57 | 50.69038 | 12.56781 | 35321 ft | 433 kts | 287° |
| 2026-05-06 19:57 | 50.70186 | 12.52453 | 35567 ft | 433 kts | 287° |
| 2026-05-06 19:57 | 50.71349 | 12.48062 | 35791 ft | 434 kts | 287° |
| 2026-05-06 19:58 | 50.72514 | 12.43652 | 36017 ft | 435 kts | 287° |
| 2026-05-06 19:58 | 50.73675 | 12.39249 | 36239 ft | 435 kts | 287° |
| 2026-05-06 19:58 | 50.74838 | 12.34834 | 36456 ft | 436 kts | 287° |
| 2026-05-06 19:58 | 50.76001 | 12.30408 | 36686 ft | 436 kts | 287° |
| 2026-05-06 19:59 | 50.77162 | 12.25981 | 36879 ft | 436 kts | 287° |
| 2026-05-06 19:59 | 50.78325 | 12.21533 | 37035 ft | 439 kts | 287° |
| 2026-05-06 19:59 | 50.79489 | 12.17077 | 37215 ft | 439 kts | 287° |
| 2026-05-06 19:59 | 50.80654 | 12.12609 | 37416 ft | 440 kts | 287° |
| 2026-05-06 20:00 | 50.81818 | 12.08138 | 37602 ft | 440 kts | 287° |
| 2026-05-06 20:00 | 50.82983 | 12.03651 | 37773 ft | 441 kts | 287° |
| 2026-05-06 20:00 | 50.85291 | 11.94743 | 37777 ft | 439 kts | 287° |
| 2026-05-06 20:01 | 50.87601 | 11.85792 | 37772 ft | 439 kts | 287° |
| 2026-05-06 20:01 | 50.89910 | 11.76798 | 37775 ft | 441 kts | 287° |
| 2026-05-06 20:02 | 50.92216 | 11.67789 | 37784 ft | 441 kts | 287° |
| 2026-05-06 20:02 | 50.94514 | 11.58775 | 37784 ft | 441 kts | 287° |
| 2026-05-06 20:03 | 50.96806 | 11.49746 | 37788 ft | 441 kts | 287° |
| 2026-05-06 20:03 | 50.99092 | 11.40707 | 37794 ft | 441 kts | 287° |
| 2026-05-06 20:04 | 51.01374 | 11.31643 | 37780 ft | 442 kts | 287° |
| 2026-05-06 20:04 | 51.03651 | 11.22566 | 37801 ft | 442 kts | 287° |
| 2026-05-06 20:05 | 51.05905 | 11.13544 | 37802 ft | 442 kts | 287° |
| 2026-05-06 20:05 | 51.08166 | 11.04457 | 37802 ft | 442 kts | 287° |
| 2026-05-06 20:06 | 51.10425 | 10.95339 | 37825 ft | 441 kts | 287° |
| 2026-05-06 20:06 | 51.12657 | 10.86293 | 37801 ft | 442 kts | 287° |
| 2026-05-06 20:07 | 51.14895 | 10.77189 | 37799 ft | 441 kts | 287° |
| 2026-05-06 20:07 | 51.17123 | 10.68085 | 37799 ft | 441 kts | 287° |
| 2026-05-06 20:08 | 51.19343 | 10.58978 | 37792 ft | 441 kts | 287° |
| 2026-05-06 20:08 | 51.21558 | 10.49850 | 37811 ft | 441 kts | 287° |
| 2026-05-06 20:09 | 51.23770 | 10.40715 | 37797 ft | 441 kts | 287° |
| 2026-05-06 20:09 | 51.26136 | 10.31742 | 37807 ft | 443 kts | 293° |
| 2026-05-06 20:10 | 51.28982 | 10.22987 | 37801 ft | 444 kts | 294° |
| 2026-05-06 20:10 | 51.31829 | 10.14224 | 37812 ft | 444 kts | 293° |
| 2026-05-06 20:11 | 51.34650 | 10.05430 | 37818 ft | 444 kts | 294° |
| 2026-05-06 20:11 | 51.37461 | 9.96617 | 37823 ft | 444 kts | 294° |
| 2026-05-06 20:12 | 51.40262 | 9.87805 | 37835 ft | 444 kts | 294° |
| 2026-05-06 20:12 | 51.43055 | 9.78987 | 37838 ft | 444 kts | 293° |
| 2026-05-06 20:13 | 51.45841 | 9.70158 | 37835 ft | 444 kts | 293° |
| 2026-05-06 20:13 | 51.48622 | 9.61313 | 37841 ft | 444 kts | 294° |
| 2026-05-06 20:14 | 51.51395 | 9.52459 | 37830 ft | 443 kts | 294° |
| 2026-05-06 20:14 | 51.54142 | 9.43664 | 37840 ft | 443 kts | 293° |
| 2026-05-06 20:15 | 51.56898 | 9.34801 | 37848 ft | 443 kts | 293° |
| 2026-05-06 20:15 | 51.59643 | 9.25946 | 37849 ft | 442 kts | 293° |
| 2026-05-06 20:16 | 51.62379 | 9.17085 | 37835 ft | 442 kts | 293° |
| 2026-05-06 20:16 | 51.65108 | 9.08214 | 37847 ft | 442 kts | 293° |
| 2026-05-06 20:17 | 51.67829 | 8.99338 | 37861 ft | 441 kts | 293° |
| 2026-05-06 20:17 | 51.70541 | 8.90458 | 37867 ft | 441 kts | 293° |
| 2026-05-06 20:18 | 51.71882 | 8.86061 | 37866 ft | 430 kts | 293° |
| 2026-05-06 20:18 | 51.73177 | 8.81814 | 37878 ft | 414 kts | 293° |
| 2026-05-06 20:18 | 51.74396 | 8.77713 | 37872 ft | 397 kts | 289° |
| 2026-05-06 20:18 | 51.75469 | 8.73664 | 37893 ft | 401 kts | 290° |
| 2026-05-06 20:19 | 51.77738 | 8.65317 | 37878 ft | 410 kts | 291° |
| 2026-05-06 20:19 | 51.80060 | 8.56775 | 37885 ft | 420 kts | 291° |
| 2026-05-06 20:20 | 51.82424 | 8.48016 | 37877 ft | 430 kts | 290° |
| 2026-05-06 20:20 | 51.84831 | 8.39047 | 37872 ft | 439 kts | 290° |
| 2026-05-06 20:21 | 51.87274 | 8.29911 | 37894 ft | 443 kts | 291° |
| 2026-05-06 20:21 | 51.89691 | 8.20841 | 37883 ft | 441 kts | 290° |
| 2026-05-06 20:22 | 51.92114 | 8.11709 | 37881 ft | 441 kts | 290° |
| 2026-05-06 20:22 | 51.94532 | 8.02555 | 37887 ft | 441 kts | 290° |
| 2026-05-06 20:23 | 51.96934 | 7.93427 | 37628 ft | 437 kts | 290° |
| 2026-05-06 20:23 | 51.98121 | 7.88905 | 37186 ft | 433 kts | 290° |
| 2026-05-06 20:23 | 51.98899 | 7.85934 | 36869 ft | 431 kts | 290° |
| 2026-05-06 20:24 | 52.00064 | 7.81478 | 36399 ft | 426 kts | 290° |
| 2026-05-06 20:24 | 52.01214 | 7.77070 | 35931 ft | 422 kts | 290° |
| 2026-05-06 20:24 | 52.02350 | 7.72710 | 35454 ft | 417 kts | 290° |
| 2026-05-06 20:24 | 52.03837 | 7.66989 | 34888 ft | 411 kts | 290° |
| 2026-05-06 20:25 | 52.04583 | 7.64114 | 34624 ft | 407 kts | 290° |
| 2026-05-06 20:25 | 52.05675 | 7.59894 | 34183 ft | 404 kts | 290° |
| 2026-05-06 20:25 | 52.06756 | 7.55711 | 33687 ft | 400 kts | 290° |
| 2026-05-06 20:25 | 52.07827 | 7.51562 | 33163 ft | 397 kts | 290° |
| 2026-05-06 20:26 | 52.08887 | 7.47445 | 32556 ft | 392 kts | 290° |
| 2026-05-06 20:26 | 52.09931 | 7.43382 | 31812 ft | 388 kts | 290° |
| 2026-05-06 20:26 | 52.10951 | 7.39408 | 31112 ft | 383 kts | 290° |
| 2026-05-06 20:26 | 52.11971 | 7.35422 | 30389 ft | 380 kts | 291° |
| 2026-05-06 20:27 | 52.13017 | 7.31326 | 29338 ft | 384 kts | 291° |
| 2026-05-06 20:27 | 52.14017 | 7.27402 | 28255 ft | 387 kts | 291° |
| 2026-05-06 20:27 | 52.15052 | 7.23342 | 27179 ft | 390 kts | 291° |
| 2026-05-06 20:27 | 52.15404 | 7.21960 | 26824 ft | 391 kts | 291° |
| 2026-05-06 20:28 | 52.19501 | 7.05801 | 23310 ft | 382 kts | 291° |
| 2026-05-06 20:28 | 52.20489 | 7.01895 | 23019 ft | 363 kts | 291° |
| 2026-05-06 20:29 | 52.21556 | 6.98254 | 22914 ft | 349 kts | 298° |
| 2026-05-06 20:29 | 52.22864 | 6.95050 | 22747 ft | 339 kts | 306° |
| 2026-05-06 20:29 | 52.24342 | 6.92090 | 22352 ft | 335 kts | 307° |
| 2026-05-06 20:29 | 52.25810 | 6.89168 | 21957 ft | 331 kts | 307° |
| 2026-05-06 20:30 | 52.27260 | 6.86266 | 21558 ft | 327 kts | 307° |
| 2026-05-06 20:30 | 52.30182 | 6.80399 | 20209 ft | 340 kts | 308° |
| 2026-05-06 20:30 | 52.31689 | 6.77371 | 19464 ft | 346 kts | 308° |
| 2026-05-06 20:31 | 52.33223 | 6.74286 | 18742 ft | 352 kts | 308° |
| 2026-05-06 20:31 | 52.34779 | 6.71159 | 18003 ft | 356 kts | 308° |
| 2026-05-06 20:31 | 52.35815 | 6.69071 | 17466 ft | 358 kts | 308° |
| 2026-05-06 20:31 | 52.37393 | 6.65892 | 16672 ft | 361 kts | 308° |
| 2026-05-06 20:32 | 52.39521 | 6.61596 | 15638 ft | 364 kts | 309° |
| 2026-05-06 20:32 | 52.40579 | 6.59458 | 15142 ft | 365 kts | 309° |
| 2026-05-06 20:32 | 52.42179 | 6.56219 | 14403 ft | 366 kts | 309° |
| 2026-05-06 20:32 | 52.43777 | 6.52980 | 13672 ft | 366 kts | 309° |
| 2026-05-06 20:33 | 52.45343 | 6.49684 | 12870 ft | 367 kts | 304° |
| 2026-05-06 20:33 | 52.46505 | 6.45971 | 12086 ft | 367 kts | 290° |
| 2026-05-06 20:33 | 52.47110 | 6.41904 | 11319 ft | 368 kts | 277° |
| 2026-05-06 20:33 | 52.47317 | 6.37728 | 10573 ft | 367 kts | 275° |
| 2026-05-06 20:34 | 52.47520 | 6.33550 | 9845 ft | 367 kts | 275° |
| 2026-05-06 20:34 | 52.47723 | 6.29391 | 9027 ft | 362 kts | 275° |
| 2026-05-06 20:34 | 52.47924 | 6.25345 | 8353 ft | 350 kts | 275° |
| 2026-05-06 20:34 | 52.48111 | 6.21486 | 8076 ft | 328 kts | 276° |
| 2026-05-06 20:35 | 52.48285 | 6.17897 | 7978 ft | 303 kts | 276° |
| 2026-05-06 20:35 | 52.48445 | 6.14593 | 7973 ft | 279 kts | 277° |
| 2026-05-06 20:35 | 52.48603 | 6.11373 | 7976 ft | 285 kts | 276° |
| 2026-05-06 20:35 | 52.48759 | 6.08197 | 7975 ft | 284 kts | 277° |
| 2026-05-06 20:36 | 52.48917 | 6.04978 | 7978 ft | 282 kts | 276° |
| 2026-05-06 20:36 | 52.49072 | 6.01742 | 7969 ft | 285 kts | 276° |
| 2026-05-06 20:36 | 52.49226 | 5.98514 | 7969 ft | 282 kts | 276° |
| 2026-05-06 20:36 | 52.49379 | 5.95317 | 7976 ft | 281 kts | 276° |
| 2026-05-06 20:37 | 52.49530 | 5.92113 | 7967 ft | 281 kts | 276° |
| 2026-05-06 20:37 | 52.49677 | 5.88901 | 7976 ft | 283 kts | 277° |
| 2026-05-06 20:37 | 52.49827 | 5.85690 | 7975 ft | 281 kts | 276° |
| 2026-05-06 20:37 | 52.49974 | 5.82488 | 7977 ft | 282 kts | 276° |
| 2026-05-06 20:38 | 52.50120 | 5.79264 | 7968 ft | 283 kts | 276° |
| 2026-05-06 20:38 | 52.50269 | 5.76047 | 7973 ft | 282 kts | 276° |
| 2026-05-06 20:38 | 52.50415 | 5.72839 | 7969 ft | 281 kts | 276° |
| 2026-05-06 20:38 | 52.50558 | 5.69635 | 7974 ft | 283 kts | 276° |
| 2026-05-06 20:39 | 52.50691 | 5.66419 | 7973 ft | 281 kts | 271° |
| 2026-05-06 20:39 | 52.50281 | 5.63286 | 7972 ft | 285 kts | 245° |
| 2026-05-06 20:39 | 52.49118 | 5.60654 | 8008 ft | 289 kts | 229° |
| 2026-05-06 20:39 | 52.47732 | 5.58262 | 7993 ft | 288 kts | 226° |
| 2026-05-06 20:40 | 52.46348 | 5.55948 | 8008 ft | 287 kts | 226° |
| 2026-05-06 20:40 | 52.44979 | 5.53607 | 8005 ft | 283 kts | 227° |
| 2026-05-06 20:40 | 52.43633 | 5.51243 | 8006 ft | 282 kts | 228° |
| 2026-05-06 20:40 | 52.42304 | 5.48873 | 8001 ft | 284 kts | 229° |
| 2026-05-06 20:41 | 52.40969 | 5.46470 | 7998 ft | 285 kts | 229° |
| 2026-05-06 20:41 | 52.39632 | 5.44058 | 7999 ft | 285 kts | 229° |
| 2026-05-06 20:41 | 52.38305 | 5.41666 | 8003 ft | 281 kts | 228° |
| 2026-05-06 20:41 | 52.36988 | 5.39296 | 8001 ft | 282 kts | 228° |
| 2026-05-06 20:42 | 52.35677 | 5.36938 | 7994 ft | 280 kts | 228° |
| 2026-05-06 20:42 | 52.34355 | 5.34564 | 7991 ft | 283 kts | 228° |
| 2026-05-06 20:42 | 52.33030 | 5.32189 | 8000 ft | 284 kts | 228° |
| 2026-05-06 20:42 | 52.31716 | 5.29832 | 7990 ft | 282 kts | 228° |
| 2026-05-06 20:43 | 52.30381 | 5.27443 | 7994 ft | 283 kts | 228° |
| 2026-05-06 20:43 | 52.29057 | 5.25075 | 7992 ft | 282 kts | 228° |
| 2026-05-06 20:43 | 52.27753 | 5.22746 | 7982 ft | 283 kts | 228° |
| 2026-05-06 20:43 | 52.26424 | 5.20374 | 7891 ft | 283 kts | 228° |
| 2026-05-06 20:44 | 52.25094 | 5.18003 | 7587 ft | 282 kts | 228° |
| 2026-05-06 20:44 | 52.23782 | 5.15664 | 7297 ft | 278 kts | 228° |
| 2026-05-06 20:44 | 52.22474 | 5.13335 | 6930 ft | 277 kts | 227° |
| 2026-05-06 20:44 | 52.21170 | 5.11017 | 6505 ft | 278 kts | 227° |
| 2026-05-06 20:45 | 52.19855 | 5.08680 | 6080 ft | 279 kts | 227° |
| 2026-05-06 20:45 | 52.18541 | 5.06349 | 5628 ft | 279 kts | 227° |
| 2026-05-06 20:45 | 52.17241 | 5.04047 | 5313 ft | 276 kts | 228° |
| 2026-05-06 20:45 | 52.15952 | 5.01769 | 5047 ft | 270 kts | 228° |
| 2026-05-06 20:46 | 52.14687 | 4.99527 | 4689 ft | 268 kts | 228° |
| 2026-05-06 20:46 | 52.13420 | 4.97287 | 4246 ft | 270 kts | 228° |
| 2026-05-06 20:46 | 52.12150 | 4.95042 | 3874 ft | 269 kts | 228° |
| 2026-05-06 20:46 | 52.10887 | 4.92810 | 3501 ft | 267 kts | 228° |
| 2026-05-06 20:47 | 52.09626 | 4.90586 | 3156 ft | 266 kts | 227° |
| 2026-05-06 20:47 | 52.08396 | 4.88418 | 3003 ft | 255 kts | 227° |
| 2026-05-06 20:47 | 52.07236 | 4.86373 | 2988 ft | 241 kts | 227° |
| 2026-05-06 20:47 | 52.06098 | 4.84374 | 2994 ft | 245 kts | 227° |
| 2026-05-06 20:48 | 52.04998 | 4.82308 | 2982 ft | 236 kts | 240° |
| 2026-05-06 20:48 | 52.04556 | 4.79894 | 2995 ft | 219 kts | 275° |
| 2026-05-06 20:48 | 52.05023 | 4.77626 | 2996 ft | 210 kts | 315° |
| 2026-05-06 20:48 | 52.06175 | 4.76335 | 2910 ft | 199 kts | 344° |
| 2026-05-06 20:49 | 52.07525 | 4.75913 | 2624 ft | 197 kts | 360° |
| 2026-05-06 20:49 | 52.08891 | 4.75911 | 2390 ft | 198 kts | 6° |
| 2026-05-06 20:49 | 52.10264 | 4.76034 | 2548 ft | 193 kts | 6° |
| 2026-05-06 20:49 | 52.11559 | 4.76146 | 2500 ft | 178 kts | 6° |
| 2026-05-06 20:50 | 52.12768 | 4.76255 | 2500 ft | 173 kts | 7° |
| 2026-05-06 20:50 | 52.13969 | 4.76366 | 2500 ft | 173 kts | 6° |
| 2026-05-06 20:50 | 52.15167 | 4.76474 | 2499 ft | 172 kts | 6° |
| 2026-05-06 20:50 | 52.16372 | 4.76583 | 2490 ft | 174 kts | 7° |
| 2026-05-06 20:51 | 52.17565 | 4.76691 | 2320 ft | 173 kts | 7° |
| 2026-05-06 20:51 | 52.18746 | 4.76798 | 2082 ft | 171 kts | 7° |
| 2026-05-06 20:51 | 52.19931 | 4.76905 | 1844 ft | 169 kts | 7° |
| 2026-05-06 20:51 | 52.21097 | 4.77011 | 1611 ft | 168 kts | 7° |
| 2026-05-06 20:52 | 52.22257 | 4.77116 | 1375 ft | 164 kts | 7° |
| 2026-05-06 20:52 | 52.23342 | 4.77212 | 1151 ft | 149 kts | 7° |
| 2026-05-06 20:52 | 52.24329 | 4.77303 | 954 ft | 135 kts | 7° |
| 2026-05-06 20:52 | 52.25241 | 4.77387 | 777 ft | 131 kts | 6° |
| 2026-05-06 20:53 | 52.26164 | 4.77476 | 600 ft | 132 kts | 4° |
| 2026-05-06 20:53 | 52.27087 | 4.77550 | 413 ft | 138 kts | 4° |
| 2026-05-06 20:53 | 52.28043 | 4.77625 | 207 ft | 139 kts | 5° |
| 2026-05-06 20:53 | 52.29046 | 4.77722 | 76 ft | 140 kts | 5° |
| 2026-05-06 20:54 | 52.29959 | 4.77822 | 12 ft | 120 kts | 4° |
| 2026-05-06 20:54 | 52.30646 | 4.77886 | 18 ft | 77 kts | 5° |
| 2026-05-06 20:54 | 52.30993 | 4.77782 | 12 ft | 41 kts | 333° |
| 2026-05-06 20:54 | 52.31155 | 4.77647 | 14 ft | 22 kts | 346° |
| 2026-05-06 20:55 | 52.31312 | 4.77648 | 14 ft | 22 kts | 4° |
| 2026-05-06 20:55 | 52.31459 | 4.77626 | 14 ft | 22 kts | 335° |
| 2026-05-06 20:55 | 52.31547 | 4.77501 | 12 ft | 13 kts | 308° |
| 2026-05-06 20:55 | 52.31579 | 4.77345 | 10 ft | 17 kts | 267° |
| 2026-05-06 20:56 | 52.31572 | 4.77129 | 9 ft | 21 kts | 267° |
| 2026-05-06 20:56 | 52.31563 | 4.76888 | 11 ft | 22 kts | 266° |
| 2026-05-06 20:56 | 52.31555 | 4.76642 | 13 ft | 20 kts | 266° |
| 2026-05-06 20:56 | 52.31548 | 4.76419 | 18 ft | 20 kts | 267° |
| 2026-05-06 20:57 | 52.31539 | 4.76172 | 16 ft | 23 kts | 267° |
| 2026-05-06 20:57 | 52.31531 | 4.75937 | 17 ft | 22 kts | 266° |
| 2026-05-06 20:57 | 52.31522 | 4.75697 | 11 ft | 17 kts | 266° |
| 2026-05-06 20:57 | 52.31516 | 4.75515 | 12 ft | 13 kts | 265° |
| 2026-05-06 20:58 | 52.31446 | 4.75437 | 9 ft | 16 kts | 173° |
| 2026-05-06 20:58 | 52.31320 | 4.75450 | 7 ft | 21 kts | 176° |
| 2026-05-06 20:58 | 52.31185 | 4.75464 | 3 ft | 15 kts | 176° |
| 2026-05-06 20:58 | 52.31118 | 4.75454 | 0 ft | 8 kts | 218° |
| 2026-05-06 20:59 | 52.31096 | 4.75362 | 0 ft | 0 kts | 243° |
| 2026-05-06 20:59 | 52.31091 | 4.75346 | 0 ft | 4 kts | 240° |
| 2026-05-06 20:59 | 52.31060 | 4.75300 | -1 ft | 8 kts | 200° |
| 2026-05-06 20:59 | 52.31018 | 4.75317 | -2 ft | 8 kts | 147° |
| 2026-05-06 21:00 | 52.31000 | 4.75341 | -3 ft | 3 kts | 144° |
| 2026-05-06 21:00 | 52.30995 | 4.75345 | -3 ft | 0 kts | 151° |
| 2026-05-06 21:01 | 52.30989 | 4.75351 | -3 ft | 0 kts | 151° |
| 2026-05-06 21:01 | 52.30986 | 4.75354 | -3 ft | 0 kts | 151° |